Tridens — PBVO — position and weather

sailwx.info

Track history (hours):
 
Tides and Currents Weather Stations Pressure Air Temp Water Temp Dewpoint Dewpoint Depression Visibility Wind Speed Wind Dir Waves Ship Positions

Oceanographic research ship Tridens (Netherlands)

Detailed information on ship capabilities available from University of Delaware's Ocean Information Center.

Last reported at 2019-Sep-21 05:49 UTC. Time now 2019-Sep-22 00:32 UTC.
Position N 54°57' W 001°14'.

Length 74 m; beam 14 m.

Type: Other ship. MMSI: 244033000.

Date/timePositionNaut miles runAvg speedWind from/ knotsBaromVisibWave heightAir tempDewpointWater temp
2019-Sep-21 05:49N 54°57' W 001°14'412.6
2019-Sep-21 05:30N 55°00' W 001°17'5 9.9
2019-Sep-21 05:00N 55°05' W 001°19'612.2
2019-Sep-21 04:30N 55°11' W 001°21'5 9.8
2019-Sep-21 04:00N 55°16' W 001°23'713.0
2019-Sep-21 03:28N 55°22' W 001°27'610.1
2019-Sep-21 02:52N 55°28' W 001°29'613.0
2019-Sep-21 02:27N 55°34' W 001°30'2 4.9
2019-Sep-21 02:00N 55°36' W 001°30'5 9.8
2019-Sep-21 01:30N 55°41' W 001°30'4 8.2
2019-Sep-21 01:00N 55°45' W 001°31'510.3
2019-Sep-21 00:30N 55°50' W 001°31'5 9.0
2019-Sep-21 00:00N 55°55' W 001°31'4 8.1
2019-Sep-20 23:30N 55°56' W 001°38'611.3
2019-Sep-20 23:00N 55°56' W 001°48'3 5.5
2019-Sep-20 22:30N 55°59' W 001°50'611.1
2019-Sep-20 22:00N 56°04' W 001°51'4 8.5
2019-Sep-20 21:29N 56°05' W 001°58'611.3
2019-Sep-20 20:59N 56°05' W 002°08'7 7.0
2019-Sep-20 19:56N 56°07' W 002°21'8 8.4
2019-Sep-20 18:56N 56°15' W 002°26'613.1
2019-Sep-20 18:30N 56°15' W 002°15'3 5.4
2019-Sep-20 17:56N 56°15' W 002°10'613.5
2019-Sep-20 17:29N 56°15' W 001°59'510.3
2019-Sep-20 17:00N 56°15' W 001°50'5 9.4
2019-Sep-20 16:30N 56°20' W 001°50'5 9.7
2019-Sep-20 16:00N 56°25' W 001°50'1012.0
2019-Sep-20 15:10N 56°25' W 002°08'1 4.4
2019-Sep-20 15:00N 56°25' W 002°09'12 8.5
2019-Sep-20 13:36N 56°35' W 001°58'5 9.3
2019-Sep-20 13:04N 56°35' W 001°49'613.2
2019-Sep-20 12:39N 56°41' W 001°50'213.5
2019-Sep-20 12:31N 56°43' W 001°50'4 6.3
2019-Sep-20 11:55N 56°45' W 001°55'714.1
2019-Sep-20 11:25N 56°46' W 002°07'2 3.7
2019-Sep-20 11:00N 56°47' W 002°09'712.7
2019-Sep-20 10:25N 56°53' W 002°02'2 5.6
2019-Sep-20 10:00N 56°55' W 001°60'4 8.3
2019-Sep-20 09:30N 56°55' W 001°52'2 3.4
2019-Sep-20 08:59N 56°57' W 001°50'613.1
2019-Sep-20 08:30N 57°03' W 001°50'4 6.3
2019-Sep-20 07:55N 57°07' W 001°50'513.4
2019-Sep-20 07:30N 57°12' W 001°50'4 7.0
2019-Sep-20 07:00N 57°16' W 001°50'713.8
2019-Sep-20 06:30N 57°22' W 001°44'4 7.2
2019-Sep-20 06:00N 57°25' W 001°40'510.3
2019-Sep-20 05:30N 57°30' W 001°39'611.4
2019-Sep-20 05:00N 57°36' W 001°40'612.0
2019-Sep-20 04:31N 57°41' W 001°45'611.0
2019-Sep-20 03:59N 57°46' W 001°49'510.8
2019-Sep-20 03:30N 57°51' W 001°49'4 6.2
2019-Sep-20 02:52N 57°53' W 001°43'511.5
2019-Sep-20 02:24N 57°53' W 001°33'2 4.3
2019-Sep-20 02:00N 57°53' W 001°29'712.7
2019-Sep-20 01:29N 57°47' W 001°29'2 4.6
2019-Sep-20 01:01N 57°44' W 001°30'612.9
2019-Sep-20 00:30N 57°38' W 001°30'4 8.6
2019-Sep-20 00:01N 57°34' W 001°30'611.6
2019-Sep-19 23:31N 57°28' W 001°30'3 5.9
2019-Sep-19 23:01N 57°25' W 001°30'511.0
2019-Sep-19 22:31N 57°19' W 001°29'4 8.1
2019-Sep-19 22:00N 57°15' W 001°30'713.4
2019-Sep-19 21:28N 57°08' W 001°29'3 6.5
2019-Sep-19 21:01N 57°05' W 001°29'46 9.6
2019-Sep-19 16:12N 56°19' W 001°30'212.9
2019-Sep-19 16:00N 56°16' W 001°30'3 5.1
2019-Sep-19 15:31N 56°14' W 001°30'710.4
2019-Sep-19 14:48N 56°06' W 001°29'2 7.5
2019-Sep-19 14:30N 56°06' W 001°25'713.6
2019-Sep-19 14:00N 56°06' W 001°13'80 9.2
2019-Sep-19 05:17N 57°26' W 001°09'410.9
2019-Sep-19 04:54N 57°30' W 001°10'3 8.3
2019-Sep-19 04:30N 57°33' W 001°10'  
2019-Sep-16 22:45N 54°14' E 001°50'713.2
2019-Sep-16 22:13N 54°08' E 001°56'512.9
2019-Sep-16 21:51N 54°04' E 002°01'612.7
2019-Sep-16 21:23N 53°60' E 002°08'612.3
2019-Sep-16 20:53N 53°55' E 002°14'712.3
2019-Sep-16 20:21N 53°49' E 002°20'512.2
2019-Sep-16 19:54N 53°45' E 002°25'2812.8
2019-Sep-16 17:42N 53°20' E 002°49'314.0
2019-Sep-16 17:29N 53°17' E 002°51'714.2
2019-Sep-16 16:58N 53°11' E 002°57'28 8.7
2019-Sep-16 13:44N 52°48' E 003°24'313.7
2019-Sep-16 13:29N 52°45' E 003°27'1513.4
2019-Sep-16 12:22N 52°33' E 003°42'613.2
2019-Sep-16 11:56N 52°29' E 003°47'513.1
2019-Sep-16 11:31N 52°24' E 003°53'713.0
2019-Sep-16 11:00N 52°19' E 003°60'613.1
2019-Sep-16 10:31N 52°14' E 004°06'713.2
2019-Sep-16 10:01N 52°09' E 004°13'4 6.1
2019-Sep-16 09:26N 52°06' E 004°16'0 0.0
2019-Sep-16 08:56N 52°06' E 004°16'0 0.0
2019-Sep-16 08:29N 52°06' E 004°16'0 0.0
2019-Sep-16 07:59N 52°06' E 004°16'0 0.0
2019-Sep-16 07:29N 52°06' E 004°16'0 0.0
2019-Sep-16 06:59N 52°06' E 004°16'0 0.0
2019-Sep-16 06:29N 52°06' E 004°16'0 0.0
2019-Sep-16 05:59N 52°06' E 004°16'0 0.0
2019-Sep-16 05:29N 52°06' E 004°16'0 0.0
2019-Sep-16 04:59N 52°06' E 004°16'0 0.0
2019-Sep-16 04:29N 52°06' E 004°16'0 0.0
2019-Sep-16 03:59N 52°06' E 004°16'0 0.0
2019-Sep-16 03:29N 52°06' E 004°16'0 0.0
2019-Sep-16 02:59N 52°06' E 004°16'0 0.0
2019-Sep-16 02:29N 52°06' E 004°16'0 0.0
2019-Sep-16 01:59N 52°06' E 004°16'0 0.0
2019-Sep-16 01:29N 52°06' E 004°16'0 0.0
2019-Sep-16 00:59N 52°06' E 004°16'0 0.0
2019-Sep-16 00:29N 52°06' E 004°16'0 0.0
2019-Sep-15 23:59N 52°06' E 004°16'0 0.0
2019-Sep-15 23:29N 52°06' E 004°16'0 0.0
2019-Sep-15 22:59N 52°06' E 004°16'0 0.0
2019-Sep-15 22:29N 52°06' E 004°16'0 0.0
2019-Sep-15 21:59N 52°06' E 004°16'0 0.0
2019-Sep-15 21:29N 52°06' E 004°16'0 0.0
2019-Sep-15 20:59N 52°06' E 004°16'0 0.0
2019-Sep-15 20:29N 52°06' E 004°16'0 0.0
2019-Sep-15 19:29N 52°06' E 004°16'0 0.0
2019-Sep-15 18:59N 52°06' E 004°16'0 0.0
2019-Sep-15 18:29N 52°06' E 004°16'0 0.0
2019-Sep-15 17:59N 52°06' E 004°16'0 0.0
2019-Sep-15 17:29N 52°06' E 004°16'0 0.0
2019-Sep-15 16:59N 52°06' E 004°16'0 0.0
2019-Sep-15 16:29N 52°06' E 004°16'0 0.0
2019-Sep-15 15:59N 52°06' E 004°16'0 0.0
2019-Sep-15 15:29N 52°06' E 004°16'0 0.0
2019-Sep-15 14:59N 52°06' E 004°16'0 0.0
2019-Sep-15 14:29N 52°06' E 004°16'0 0.0
2019-Sep-15 13:56N 52°06' E 004°16'0 0.0
2019-Sep-15 13:29N 52°06' E 004°16'0 0.0
2019-Sep-15 12:59N 52°06' E 004°16'0 0.0
2019-Sep-15 12:29N 52°06' E 004°16'0 0.0
2019-Sep-15 11:59N 52°06' E 004°16'0 0.0
2019-Sep-15 11:29N 52°06' E 004°16'0 0.0
2019-Sep-15 10:59N 52°06' E 004°16'0 0.0
2019-Sep-15 10:29N 52°06' E 004°16'0 0.0
2019-Sep-15 09:56N 52°06' E 004°16'0 0.0
2019-Sep-15 09:29N 52°06' E 004°16'0 0.0
2019-Sep-15 08:59N 52°06' E 004°16'0 0.0
2019-Sep-15 08:29N 52°06' E 004°16'0 0.0
2019-Sep-15 07:59N 52°06' E 004°16'0 0.0
2019-Sep-15 07:29N 52°06' E 004°16'0 0.0
2019-Sep-15 06:59N 52°06' E 004°16'0 0.0
2019-Sep-15 06:29N 52°06' E 004°16'0 0.0
2019-Sep-15 05:59N 52°06' E 004°16'0 0.0
2019-Sep-15 05:29N 52°06' E 004°16'0 0.0
2019-Sep-15 04:59N 52°06' E 004°16'0 0.0
2019-Sep-15 04:29N 52°06' E 004°16'0 0.0
2019-Sep-15 03:59N 52°06' E 004°16'0 0.0
2019-Sep-15 03:29N 52°06' E 004°16'0 0.0
2019-Sep-15 02:59N 52°06' E 004°16'0 0.0
2019-Sep-15 02:29N 52°06' E 004°16'0 0.0
2019-Sep-15 01:59N 52°06' E 004°16'0 0.0
2019-Sep-15 01:26N 52°06' E 004°16'0 0.0
2019-Sep-15 00:59N 52°06' E 004°16'0 0.0
2019-Sep-15 00:29N 52°06' E 004°16'0 0.0
2019-Sep-14 23:59N 52°06' E 004°16'0 0.0
2019-Sep-14 23:30N 52°06' E 004°16'0 0.0
2019-Sep-14 23:00N 52°06' E 004°16'0 0.0
2019-Sep-14 22:30N 52°06' E 004°16'0 0.0
2019-Sep-14 22:00N 52°06' E 004°16'0 0.0
2019-Sep-14 21:30N 52°06' E 004°16'0 0.0
2019-Sep-14 21:00N 52°06' E 004°16'0 0.0
2019-Sep-14 20:27N 52°06' E 004°16'0 0.0
2019-Sep-14 20:00N 52°06' E 004°16'0 0.0
2019-Sep-14 19:30N 52°06' E 004°16'0 0.0
2019-Sep-14 19:00N 52°06' E 004°16'0 0.0
2019-Sep-14 18:30N 52°06' E 004°16'0 0.0
2019-Sep-14 18:00N 52°06' E 004°16'0 0.0
2019-Sep-14 17:30N 52°06' E 004°16'0 0.0
2019-Sep-14 17:00N 52°06' E 004°16'0 0.0
2019-Sep-14 16:30N 52°06' E 004°16'0 0.0
2019-Sep-14 16:00N 52°06' E 004°16'0 0.0
2019-Sep-14 15:30N 52°06' E 004°16'0 0.0
2019-Sep-14 15:00N 52°06' E 004°16'0 0.0
2019-Sep-14 14:30N 52°06' E 004°16'0 0.0
2019-Sep-14 14:00N 52°06' E 004°16'0 0.0
2019-Sep-14 13:30N 52°06' E 004°16'0 0.0
2019-Sep-14 12:30N 52°06' E 004°16'0 0.0
2019-Sep-14 12:00N 52°06' E 004°16'0 0.0
2019-Sep-14 11:30N 52°06' E 004°16'0 0.0
2019-Sep-14 11:00N 52°06' E 004°16'0 0.0
2019-Sep-14 10:30N 52°06' E 004°16'0 0.0
2019-Sep-14 10:00N 52°06' E 004°16'0 0.0
2019-Sep-14 09:30N 52°06' E 004°16'0 0.0
2019-Sep-14 09:00N 52°06' E 004°16'0 0.0
2019-Sep-14 08:30N 52°06' E 004°16'0 0.0
2019-Sep-14 08:00N 52°06' E 004°16'0 0.0
2019-Sep-14 07:30N 52°06' E 004°16'0 0.0
2019-Sep-14 07:00N 52°06' E 004°16'0 0.0
2019-Sep-14 06:30N 52°06' E 004°16'0 0.0
2019-Sep-14 06:00N 52°06' E 004°16'0 0.0
2019-Sep-14 05:30N 52°06' E 004°16'0 0.0
2019-Sep-14 05:00N 52°06' E 004°16'0 0.0
2019-Sep-14 04:30N 52°06' E 004°16'0 0.0
2019-Sep-14 03:57N 52°06' E 004°16'0 0.0
2019-Sep-14 03:30N 52°06' E 004°16'0 0.0
2019-Sep-14 03:00N 52°06' E 004°16'0 0.0
2019-Sep-14 02:30N 52°06' E 004°16'0 0.0
2019-Sep-14 02:00N 52°06' E 004°16'0 0.0
2019-Sep-14 01:30N 52°06' E 004°16'0 0.0
2019-Sep-14 01:00N 52°06' E 004°16'0 0.0
2019-Sep-14 00:30N 52°06' E 004°16'0 0.0
2019-Sep-14 00:00N 52°06' E 004°16'0 0.0
2019-Sep-13 23:30N 52°06' E 004°16'0 0.0
2019-Sep-13 23:00N 52°06' E 004°16'0 0.0
2019-Sep-13 22:30N 52°06' E 004°16'0 0.0
2019-Sep-13 22:00N 52°06' E 004°16'0 0.0
2019-Sep-13 21:30N 52°06' E 004°16'0 0.0
2019-Sep-13 20:30N 52°06' E 004°16'0 0.0
2019-Sep-13 20:00N 52°06' E 004°16'0 0.0
2019-Sep-13 19:30N 52°06' E 004°16'0 0.0
2019-Sep-13 19:00N 52°06' E 004°16'0 0.0
2019-Sep-13 18:30N 52°06' E 004°16'0 0.0
2019-Sep-13 18:00N 52°06' E 004°16'0 0.0
2019-Sep-13 17:30N 52°06' E 004°16'0 0.0
2019-Sep-13 17:00N 52°06' E 004°16'0 0.0
2019-Sep-13 16:30N 52°06' E 004°16'0 0.0
2019-Sep-13 16:00N 52°06' E 004°16'0 0.0
2019-Sep-13 15:30N 52°06' E 004°16'0 0.0
2019-Sep-13 15:00N 52°06' E 004°16'0 0.0
2019-Sep-13 14:30N 52°06' E 004°16'0 0.0
2019-Sep-13 14:00N 52°06' E 004°16'0 0.0
2019-Sep-13 13:30N 52°06' E 004°16'0 0.0
2019-Sep-13 13:00N 52°06' E 004°16'0 0.0
2019-Sep-13 12:30N 52°06' E 004°16'0 0.0
2019-Sep-13 12:00N 52°06' E 004°16'0 0.0
2019-Sep-13 11:30N 52°06' E 004°16'0 0.0
2019-Sep-13 11:00N 52°06' E 004°16'0 0.0
2019-Sep-13 10:30N 52°06' E 004°16'0 0.0
2019-Sep-13 10:00N 52°06' E 004°16'0 0.0
2019-Sep-13 09:27N 52°06' E 004°16'0 0.0
2019-Sep-13 09:00N 52°06' E 004°16'0 0.0
2019-Sep-13 08:30N 52°06' E 004°16'0 0.0
2019-Sep-13 08:00N 52°06' E 004°16'0 0.0
2019-Sep-13 07:30N 52°06' E 004°16'0 0.0
2019-Sep-13 07:00N 52°06' E 004°16'0 0.0
2019-Sep-13 06:30N 52°06' E 004°16'0 0.0
2019-Sep-13 06:00N 52°06' E 004°16'0 0.0
2019-Sep-13 05:30N 52°06' E 004°16'0 0.0
2019-Sep-13 05:00N 52°06' E 004°16'0 0.0
2019-Sep-13 04:27N 52°06' E 004°16'0 0.0
2019-Sep-13 04:00N 52°06' E 004°16'0 0.0
2019-Sep-13 03:30N 52°06' E 004°16'0 0.0
2019-Sep-13 03:00N 52°06' E 004°16'0 0.0
2019-Sep-13 02:30N 52°06' E 004°16'0 0.0
2019-Sep-13 01:30N 52°06' E 004°16'0 0.0
2019-Sep-13 01:00N 52°06' E 004°16'0 0.0
2019-Sep-13 00:30N 52°06' E 004°16'0 0.0
2019-Sep-13 00:00N 52°06' E 004°16'0 0.0
2019-Sep-12 23:27N 52°06' E 004°16'0 0.0
2019-Sep-12 22:57N 52°06' E 004°16'0 0.0
2019-Sep-12 22:30N 52°06' E 004°16'0 0.0
2019-Sep-12 22:00N 52°06' E 004°16'0 0.0
2019-Sep-12 21:30N 52°06' E 004°16'0 0.0
2019-Sep-12 21:00N 52°06' E 004°16'0 0.0
2019-Sep-12 20:30N 52°06' E 004°16'0 0.0
2019-Sep-12 20:00N 52°06' E 004°16'0 0.0
2019-Sep-12 19:27N 52°06' E 004°16'0 0.0
2019-Sep-12 19:00N 52°06' E 004°16'0 0.0
2019-Sep-12 18:30N 52°06' E 004°16'0 0.0
2019-Sep-12 18:00N 52°06' E 004°16'0 0.0
2019-Sep-12 17:30N 52°06' E 004°16'0 0.0
2019-Sep-12 17:00N 52°06' E 004°16'0 0.0
2019-Sep-12 16:30N 52°06' E 004°16'0 0.0
2019-Sep-12 16:00N 52°06' E 004°16'0 0.0
2019-Sep-12 15:30N 52°06' E 004°16'0 0.0
2019-Sep-12 15:00N 52°06' E 004°16'0 0.0
2019-Sep-12 14:24N 52°06' E 004°16'0 0.0
2019-Sep-12 14:00N 52°06' E 004°16'0 0.0
2019-Sep-12 13:30N 52°06' E 004°16'0 0.0
2019-Sep-12 13:00N 52°06' E 004°16'0 0.0
2019-Sep-12 12:30N 52°06' E 004°16'0 0.0
2019-Sep-12 12:00N 52°06' E 004°16'0 0.0
2019-Sep-12 11:30N 52°06' E 004°16'0 0.0
2019-Sep-12 11:00N 52°06' E 004°16'0 0.0
2019-Sep-12 10:30N 52°06' E 004°16'0 0.0
2019-Sep-12 10:00N 52°06' E 004°16'0 0.0
2019-Sep-12 09:27N 52°06' E 004°16'0 0.0
2019-Sep-12 09:00N 52°06' E 004°16'0 0.0
2019-Sep-12 08:30N 52°06' E 004°16'0 0.0
2019-Sep-12 08:00N 52°06' E 004°16'0 0.0
2019-Sep-12 07:30N 52°06' E 004°16'1 1.1
2019-Sep-12 06:30N 52°07' E 004°15'4 8.9
2019-Sep-12 06:00N 52°11' E 004°11'3 6.0
2019-Sep-12 05:30N 52°12' E 004°07'2 4.4
2019-Sep-12 05:00N 52°11' E 004°03'2 4.6
2019-Sep-12 04:30N 52°12' E 003°60'2 4.7
2019-Sep-12 04:00N 52°12' E 003°56'2 4.9
2019-Sep-12 03:30N 52°12' E 003°52'3 5.0
2019-Sep-12 03:00N 52°12' E 003°48'3 5.1
2019-Sep-12 02:30N 52°12' E 003°44'3 5.1
2019-Sep-12 02:00N 52°12' E 003°39'3 5.2
2019-Sep-12 01:30N 52°12' E 003°35'4 7.1
2019-Sep-12 01:00N 52°11' E 003°30'4 8.8
2019-Sep-12 00:30N 52°10' E 003°23'510.6
2019-Sep-12 00:00N 52°09' E 003°14'510.4
2019-Sep-11 23:30N 52°07' E 003°06'610.4
2019-Sep-11 22:58N 52°03' E 002°60'35 8.2
2019-Sep-11 18:44N 51°38' E 002°22'7 7.1
2019-Sep-11 17:47N 51°39' E 002°11'2 5.6
2019-Sep-11 17:30N 51°41' E 002°13'2 4.3
2019-Sep-11 16:56N 51°42' E 002°16'57 9.0
2019-Sep-11 10:39N 52°39' E 002°28'212.3
2019-Sep-11 10:30N 52°40' E 002°27'612.4
2019-Sep-11 10:00N 52°46' E 002°22'2 4.1
2019-Sep-11 09:30N 52°45' E 002°19'2 3.3
2019-Sep-11 08:57N 52°46' E 002°17'1 1.1
2019-Sep-11 08:30N 52°47' E 002°17'4 8.4
2019-Sep-11 08:00N 52°50' E 002°20'  
Track history (hours):
 
Tides and Currents Weather Stations Pressure Air Temp Water Temp Dewpoint Dewpoint Depression Visibility Wind Speed Wind Dir Waves Ship Positions

Oceanographic research ship Tridens (Netherlands)

Detailed information on ship capabilities available from University of Delaware's Ocean Information Center.

Last reported at 2019-Sep-21 05:49 UTC. Time now 2019-Sep-22 00:32 UTC.
Position N 54°57' W 001°14'.

Length 74 m; beam 14 m.

Type: Other ship. MMSI: 244033000.

Date/timePositionNaut miles runAvg speedWind from/ knotsBaromVisibWave heightAir tempDewpointWater temp
2019-Sep-21 05:49N 54°57' W 001°14'412.6
2019-Sep-21 05:30N 55°00' W 001°17'5 9.9
2019-Sep-21 05:00N 55°05' W 001°19'612.2
2019-Sep-21 04:30N 55°11' W 001°21'5 9.8
2019-Sep-21 04:00N 55°16' W 001°23'713.0
2019-Sep-21 03:28N 55°22' W 001°27'610.1
2019-Sep-21 02:52N 55°28' W 001°29'613.0
2019-Sep-21 02:27N 55°34' W 001°30'2 4.9
2019-Sep-21 02:00N 55°36' W 001°30'5 9.8
2019-Sep-21 01:30N 55°41' W 001°30'4 8.2
2019-Sep-21 01:00N 55°45' W 001°31'510.3
2019-Sep-21 00:30N 55°50' W 001°31'5 9.0
2019-Sep-21 00:00N 55°55' W 001°31'4 8.1
2019-Sep-20 23:30N 55°56' W 001°38'611.3
2019-Sep-20 23:00N 55°56' W 001°48'3 5.5
2019-Sep-20 22:30N 55°59' W 001°50'611.1
2019-Sep-20 22:00N 56°04' W 001°51'4 8.5
2019-Sep-20 21:29N 56°05' W 001°58'611.3
2019-Sep-20 20:59N 56°05' W 002°08'7 7.0
2019-Sep-20 19:56N 56°07' W 002°21'8 8.4
2019-Sep-20 18:56N 56°15' W 002°26'613.1
2019-Sep-20 18:30N 56°15' W 002°15'3 5.4
2019-Sep-20 17:56N 56°15' W 002°10'613.5
2019-Sep-20 17:29N 56°15' W 001°59'510.3
2019-Sep-20 17:00N 56°15' W 001°50'5 9.4
2019-Sep-20 16:30N 56°20' W 001°50'5 9.7
2019-Sep-20 16:00N 56°25' W 001°50'1012.0
2019-Sep-20 15:10N 56°25' W 002°08'1 4.4
2019-Sep-20 15:00N 56°25' W 002°09'12 8.5
2019-Sep-20 13:36N 56°35' W 001°58'5 9.3
2019-Sep-20 13:04N 56°35' W 001°49'613.2
2019-Sep-20 12:39N 56°41' W 001°50'213.5
2019-Sep-20 12:31N 56°43' W 001°50'4 6.3
2019-Sep-20 11:55N 56°45' W 001°55'714.1
2019-Sep-20 11:25N 56°46' W 002°07'2 3.7
2019-Sep-20 11:00N 56°47' W 002°09'712.7
2019-Sep-20 10:25N 56°53' W 002°02'2 5.6
2019-Sep-20 10:00N 56°55' W 001°60'4 8.3
2019-Sep-20 09:30N 56°55' W 001°52'2 3.4
2019-Sep-20 08:59N 56°57' W 001°50'613.1
2019-Sep-20 08:30N 57°03' W 001°50'4 6.3
2019-Sep-20 07:55N 57°07' W 001°50'513.4
2019-Sep-20 07:30N 57°12' W 001°50'4 7.0
2019-Sep-20 07:00N 57°16' W 001°50'713.8
2019-Sep-20 06:30N 57°22' W 001°44'4 7.2
2019-Sep-20 06:00N 57°25' W 001°40'510.3
2019-Sep-20 05:30N 57°30' W 001°39'611.4
2019-Sep-20 05:00N 57°36' W 001°40'612.0
2019-Sep-20 04:31N 57°41' W 001°45'611.0
2019-Sep-20 03:59N 57°46' W 001°49'510.8
2019-Sep-20 03:30N 57°51' W 001°49'4 6.2
2019-Sep-20 02:52N 57°53' W 001°43'511.5
2019-Sep-20 02:24N 57°53' W 001°33'2 4.3
2019-Sep-20 02:00N 57°53' W 001°29'712.7
2019-Sep-20 01:29N 57°47' W 001°29'2 4.6
2019-Sep-20 01:01N 57°44' W 001°30'612.9
2019-Sep-20 00:30N 57°38' W 001°30'4 8.6
2019-Sep-20 00:01N 57°34' W 001°30'611.6
2019-Sep-19 23:31N 57°28' W 001°30'3 5.9
2019-Sep-19 23:01N 57°25' W 001°30'511.0
2019-Sep-19 22:31N 57°19' W 001°29'4 8.1
2019-Sep-19 22:00N 57°15' W 001°30'713.4
2019-Sep-19 21:28N 57°08' W 001°29'3 6.5
2019-Sep-19 21:01N 57°05' W 001°29'46 9.6
2019-Sep-19 16:12N 56°19' W 001°30'212.9
2019-Sep-19 16:00N 56°16' W 001°30'3 5.1
2019-Sep-19 15:31N 56°14' W 001°30'710.4
2019-Sep-19 14:48N 56°06' W 001°29'2 7.5
2019-Sep-19 14:30N 56°06' W 001°25'713.6
2019-Sep-19 14:00N 56°06' W 001°13'80 9.2
2019-Sep-19 05:17N 57°26' W 001°09'410.9
2019-Sep-19 04:54N 57°30' W 001°10'3 8.3
2019-Sep-19 04:30N 57°33' W 001°10'  
2019-Sep-16 22:45N 54°14' E 001°50'713.2
2019-Sep-16 22:13N 54°08' E 001°56'512.9
2019-Sep-16 21:51N 54°04' E 002°01'612.7
2019-Sep-16 21:23N 53°60' E 002°08'612.3
2019-Sep-16 20:53N 53°55' E 002°14'712.3
2019-Sep-16 20:21N 53°49' E 002°20'512.2
2019-Sep-16 19:54N 53°45' E 002°25'2812.8
2019-Sep-16 17:42N 53°20' E 002°49'314.0
2019-Sep-16 17:29N 53°17' E 002°51'714.2
2019-Sep-16 16:58N 53°11' E 002°57'28 8.7
2019-Sep-16 13:44N 52°48' E 003°24'313.7
2019-Sep-16 13:29N 52°45' E 003°27'1513.4
2019-Sep-16 12:22N 52°33' E 003°42'613.2
2019-Sep-16 11:56N 52°29' E 003°47'513.1
2019-Sep-16 11:31N 52°24' E 003°53'713.0
2019-Sep-16 11:00N 52°19' E 003°60'613.1
2019-Sep-16 10:31N 52°14' E 004°06'713.2
2019-Sep-16 10:01N 52°09' E 004°13'4 6.1
2019-Sep-16 09:26N 52°06' E 004°16'0 0.0
2019-Sep-16 08:56N 52°06' E 004°16'0 0.0
2019-Sep-16 08:29N 52°06' E 004°16'0 0.0
2019-Sep-16 07:59N 52°06' E 004°16'0 0.0
2019-Sep-16 07:29N 52°06' E 004°16'0 0.0
2019-Sep-16 06:59N 52°06' E 004°16'0 0.0
2019-Sep-16 06:29N 52°06' E 004°16'0 0.0
2019-Sep-16 05:59N 52°06' E 004°16'0 0.0
2019-Sep-16 05:29N 52°06' E 004°16'0 0.0
2019-Sep-16 04:59N 52°06' E 004°16'0 0.0
2019-Sep-16 04:29N 52°06' E 004°16'0 0.0
2019-Sep-16 03:59N 52°06' E 004°16'0 0.0
2019-Sep-16 03:29N 52°06' E 004°16'0 0.0
2019-Sep-16 02:59N 52°06' E 004°16'0 0.0
2019-Sep-16 02:29N 52°06' E 004°16'0 0.0
2019-Sep-16 01:59N 52°06' E 004°16'0 0.0
2019-Sep-16 01:29N 52°06' E 004°16'0 0.0
2019-Sep-16 00:59N 52°06' E 004°16'0 0.0
2019-Sep-16 00:29N 52°06' E 004°16'0 0.0
2019-Sep-15 23:59N 52°06' E 004°16'0 0.0
2019-Sep-15 23:29N 52°06' E 004°16'0 0.0
2019-Sep-15 22:59N 52°06' E 004°16'0 0.0
2019-Sep-15 22:29N 52°06' E 004°16'0 0.0
2019-Sep-15 21:59N 52°06' E 004°16'0 0.0
2019-Sep-15 21:29N 52°06' E 004°16'0 0.0
2019-Sep-15 20:59N 52°06' E 004°16'0 0.0
2019-Sep-15 20:29N 52°06' E 004°16'0 0.0
2019-Sep-15 19:29N 52°06' E 004°16'0 0.0
2019-Sep-15 18:59N 52°06' E 004°16'0 0.0
2019-Sep-15 18:29N 52°06' E 004°16'0 0.0
2019-Sep-15 17:59N 52°06' E 004°16'0 0.0
2019-Sep-15 17:29N 52°06' E 004°16'0 0.0
2019-Sep-15 16:59N 52°06' E 004°16'0 0.0
2019-Sep-15 16:29N 52°06' E 004°16'0 0.0
2019-Sep-15 15:59N 52°06' E 004°16'0 0.0
2019-Sep-15 15:29N 52°06' E 004°16'0 0.0
2019-Sep-15 14:59N 52°06' E 004°16'0 0.0
2019-Sep-15 14:29N 52°06' E 004°16'0 0.0
2019-Sep-15 13:56N 52°06' E 004°16'0 0.0
2019-Sep-15 13:29N 52°06' E 004°16'0 0.0
2019-Sep-15 12:59N 52°06' E 004°16'0 0.0
2019-Sep-15 12:29N 52°06' E 004°16'0 0.0
2019-Sep-15 11:59N 52°06' E 004°16'0 0.0
2019-Sep-15 11:29N 52°06' E 004°16'0 0.0
2019-Sep-15 10:59N 52°06' E 004°16'0 0.0
2019-Sep-15 10:29N 52°06' E 004°16'0 0.0
2019-Sep-15 09:56N 52°06' E 004°16'0 0.0
2019-Sep-15 09:29N 52°06' E 004°16'0 0.0
2019-Sep-15 08:59N 52°06' E 004°16'0 0.0
2019-Sep-15 08:29N 52°06' E 004°16'0 0.0
2019-Sep-15 07:59N 52°06' E 004°16'0 0.0
2019-Sep-15 07:29N 52°06' E 004°16'0 0.0
2019-Sep-15 06:59N 52°06' E 004°16'0 0.0
2019-Sep-15 06:29N 52°06' E 004°16'0 0.0
2019-Sep-15 05:59N 52°06' E 004°16'0 0.0
2019-Sep-15 05:29N 52°06' E 004°16'0 0.0
2019-Sep-15 04:59N 52°06' E 004°16'0 0.0
2019-Sep-15 04:29N 52°06' E 004°16'0 0.0
2019-Sep-15 03:59N 52°06' E 004°16'0 0.0
2019-Sep-15 03:29N 52°06' E 004°16'0 0.0
2019-Sep-15 02:59N 52°06' E 004°16'0 0.0
2019-Sep-15 02:29N 52°06' E 004°16'0 0.0
2019-Sep-15 01:59N 52°06' E 004°16'0 0.0
2019-Sep-15 01:26N 52°06' E 004°16'0 0.0
2019-Sep-15 00:59N 52°06' E 004°16'0 0.0
2019-Sep-15 00:29N 52°06' E 004°16'0 0.0
2019-Sep-14 23:59N 52°06' E 004°16'0 0.0
2019-Sep-14 23:30N 52°06' E 004°16'0 0.0
2019-Sep-14 23:00N 52°06' E 004°16'0 0.0
2019-Sep-14 22:30N 52°06' E 004°16'0 0.0
2019-Sep-14 22:00N 52°06' E 004°16'0 0.0
2019-Sep-14 21:30N 52°06' E 004°16'0 0.0
2019-Sep-14 21:00N 52°06' E 004°16'0 0.0
2019-Sep-14 20:27N 52°06' E 004°16'0 0.0
2019-Sep-14 20:00N 52°06' E 004°16'0 0.0
2019-Sep-14 19:30N 52°06' E 004°16'0 0.0
2019-Sep-14 19:00N 52°06' E 004°16'0 0.0
2019-Sep-14 18:30N 52°06' E 004°16'0 0.0
2019-Sep-14 18:00N 52°06' E 004°16'0 0.0
2019-Sep-14 17:30N 52°06' E 004°16'0 0.0
2019-Sep-14 17:00N 52°06' E 004°16'0 0.0
2019-Sep-14 16:30N 52°06' E 004°16'0 0.0
2019-Sep-14 16:00N 52°06' E 004°16'0 0.0
2019-Sep-14 15:30N 52°06' E 004°16'0 0.0
2019-Sep-14 15:00N 52°06' E 004°16'0 0.0
2019-Sep-14 14:30N 52°06' E 004°16'0 0.0
2019-Sep-14 14:00N 52°06' E 004°16'0 0.0
2019-Sep-14 13:30N 52°06' E 004°16'0 0.0
2019-Sep-14 12:30N 52°06' E 004°16'0 0.0
2019-Sep-14 12:00N 52°06' E 004°16'0 0.0
2019-Sep-14 11:30N 52°06' E 004°16'0 0.0
2019-Sep-14 11:00N 52°06' E 004°16'0 0.0
2019-Sep-14 10:30N 52°06' E 004°16'0 0.0
2019-Sep-14 10:00N 52°06' E 004°16'0 0.0
2019-Sep-14 09:30N 52°06' E 004°16'0 0.0
2019-Sep-14 09:00N 52°06' E 004°16'0 0.0
2019-Sep-14 08:30N 52°06' E 004°16'0 0.0
2019-Sep-14 08:00N 52°06' E 004°16'0 0.0
2019-Sep-14 07:30N 52°06' E 004°16'0 0.0
2019-Sep-14 07:00N 52°06' E 004°16'0 0.0
2019-Sep-14 06:30N 52°06' E 004°16'0 0.0
2019-Sep-14 06:00N 52°06' E 004°16'0 0.0
2019-Sep-14 05:30N 52°06' E 004°16'0 0.0
2019-Sep-14 05:00N 52°06' E 004°16'0 0.0
2019-Sep-14 04:30N 52°06' E 004°16'0 0.0
2019-Sep-14 03:57N 52°06' E 004°16'0 0.0
2019-Sep-14 03:30N 52°06' E 004°16'0 0.0
2019-Sep-14 03:00N 52°06' E 004°16'0 0.0
2019-Sep-14 02:30N 52°06' E 004°16'0 0.0
2019-Sep-14 02:00N 52°06' E 004°16'0 0.0
2019-Sep-14 01:30N 52°06' E 004°16'0 0.0
2019-Sep-14 01:00N 52°06' E 004°16'0 0.0
2019-Sep-14 00:30N 52°06' E 004°16'0 0.0
2019-Sep-14 00:00N 52°06' E 004°16'0 0.0
2019-Sep-13 23:30N 52°06' E 004°16'0 0.0
2019-Sep-13 23:00N 52°06' E 004°16'0 0.0
2019-Sep-13 22:30N 52°06' E 004°16'0 0.0
2019-Sep-13 22:00N 52°06' E 004°16'0 0.0
2019-Sep-13 21:30N 52°06' E 004°16'0 0.0
2019-Sep-13 20:30N 52°06' E 004°16'0 0.0
2019-Sep-13 20:00N 52°06' E 004°16'0 0.0
2019-Sep-13 19:30N 52°06' E 004°16'0 0.0
2019-Sep-13 19:00N 52°06' E 004°16'0 0.0
2019-Sep-13 18:30N 52°06' E 004°16'0 0.0
2019-Sep-13 18:00N 52°06' E 004°16'0 0.0
2019-Sep-13 17:30N 52°06' E 004°16'0 0.0
2019-Sep-13 17:00N 52°06' E 004°16'0 0.0
2019-Sep-13 16:30N 52°06' E 004°16'0 0.0
2019-Sep-13 16:00N 52°06' E 004°16'0 0.0
2019-Sep-13 15:30N 52°06' E 004°16'0 0.0
2019-Sep-13 15:00N 52°06' E 004°16'0 0.0
2019-Sep-13 14:30N 52°06' E 004°16'0 0.0
2019-Sep-13 14:00N 52°06' E 004°16'0 0.0
2019-Sep-13 13:30N 52°06' E 004°16'0 0.0
2019-Sep-13 13:00N 52°06' E 004°16'0 0.0
2019-Sep-13 12:30N 52°06' E 004°16'0 0.0
2019-Sep-13 12:00N 52°06' E 004°16'0 0.0
2019-Sep-13 11:30N 52°06' E 004°16'0 0.0
2019-Sep-13 11:00N 52°06' E 004°16'0 0.0
2019-Sep-13 10:30N 52°06' E 004°16'0 0.0
2019-Sep-13 10:00N 52°06' E 004°16'0 0.0
2019-Sep-13 09:27N 52°06' E 004°16'0 0.0
2019-Sep-13 09:00N 52°06' E 004°16'0 0.0
2019-Sep-13 08:30N 52°06' E 004°16'0 0.0
2019-Sep-13 08:00N 52°06' E 004°16'0 0.0
2019-Sep-13 07:30N 52°06' E 004°16'0 0.0
2019-Sep-13 07:00N 52°06' E 004°16'0 0.0
2019-Sep-13 06:30N 52°06' E 004°16'0 0.0
2019-Sep-13 06:00N 52°06' E 004°16'0 0.0
2019-Sep-13 05:30N 52°06' E 004°16'0 0.0
2019-Sep-13 05:00N 52°06' E 004°16'0 0.0
2019-Sep-13 04:27N 52°06' E 004°16'0 0.0
2019-Sep-13 04:00N 52°06' E 004°16'0 0.0
2019-Sep-13 03:30N 52°06' E 004°16'0 0.0
2019-Sep-13 03:00N 52°06' E 004°16'0 0.0
2019-Sep-13 02:30N 52°06' E 004°16'0 0.0
2019-Sep-13 01:30N 52°06' E 004°16'0 0.0
2019-Sep-13 01:00N 52°06' E 004°16'0 0.0
2019-Sep-13 00:30N 52°06' E 004°16'0 0.0
2019-Sep-13 00:00N 52°06' E 004°16'0 0.0
2019-Sep-12 23:27N 52°06' E 004°16'0 0.0
2019-Sep-12 22:57N 52°06' E 004°16'0 0.0
2019-Sep-12 22:30N 52°06' E 004°16'0 0.0
2019-Sep-12 22:00N 52°06' E 004°16'0 0.0
2019-Sep-12 21:30N 52°06' E 004°16'0 0.0
2019-Sep-12 21:00N 52°06' E 004°16'0 0.0
2019-Sep-12 20:30N 52°06' E 004°16'0 0.0
2019-Sep-12 20:00N 52°06' E 004°16'0 0.0
2019-Sep-12 19:27N 52°06' E 004°16'0 0.0
2019-Sep-12 19:00N 52°06' E 004°16'0 0.0
2019-Sep-12 18:30N 52°06' E 004°16'0 0.0
2019-Sep-12 18:00N 52°06' E 004°16'0 0.0
2019-Sep-12 17:30N 52°06' E 004°16'0 0.0
2019-Sep-12 17:00N 52°06' E 004°16'0 0.0
2019-Sep-12 16:30N 52°06' E 004°16'0 0.0
2019-Sep-12 16:00N 52°06' E 004°16'0 0.0
2019-Sep-12 15:30N 52°06' E 004°16'0 0.0
2019-Sep-12 15:00N 52°06' E 004°16'0 0.0
2019-Sep-12 14:24N 52°06' E 004°16'0 0.0
2019-Sep-12 14:00N 52°06' E 004°16'0 0.0
2019-Sep-12 13:30N 52°06' E 004°16'0 0.0
2019-Sep-12 13:00N 52°06' E 004°16'0 0.0
2019-Sep-12 12:30N 52°06' E 004°16'0 0.0
2019-Sep-12 12:00N 52°06' E 004°16'0 0.0
2019-Sep-12 11:30N 52°06' E 004°16'0 0.0
2019-Sep-12 11:00N 52°06' E 004°16'0 0.0
2019-Sep-12 10:30N 52°06' E 004°16'0 0.0
2019-Sep-12 10:00N 52°06' E 004°16'0 0.0
2019-Sep-12 09:27N 52°06' E 004°16'0 0.0
2019-Sep-12 09:00N 52°06' E 004°16'0 0.0
2019-Sep-12 08:30N 52°06' E 004°16'0 0.0
2019-Sep-12 08:00N 52°06' E 004°16'0 0.0
2019-Sep-12 07:30N 52°06' E 004°16'1 1.1
2019-Sep-12 06:30N 52°07' E 004°15'4 8.9
2019-Sep-12 06:00N 52°11' E 004°11'3 6.0
2019-Sep-12 05:30N 52°12' E 004°07'2 4.4
2019-Sep-12 05:00N 52°11' E 004°03'2 4.6
2019-Sep-12 04:30N 52°12' E 003°60'2 4.7
2019-Sep-12 04:00N 52°12' E 003°56'2 4.9
2019-Sep-12 03:30N 52°12' E 003°52'3 5.0
2019-Sep-12 03:00N 52°12' E 003°48'3 5.1
2019-Sep-12 02:30N 52°12' E 003°44'3 5.1
2019-Sep-12 02:00N 52°12' E 003°39'3 5.2
2019-Sep-12 01:30N 52°12' E 003°35'4 7.1
2019-Sep-12 01:00N 52°11' E 003°30'4 8.8
2019-Sep-12 00:30N 52°10' E 003°23'510.6
2019-Sep-12 00:00N 52°09' E 003°14'510.4
2019-Sep-11 23:30N 52°07' E 003°06'610.4
2019-Sep-11 22:58N 52°03' E 002°60'35 8.2
2019-Sep-11 18:44N 51°38' E 002°22'7 7.1
2019-Sep-11 17:47N 51°39' E 002°11'2 5.6
2019-Sep-11 17:30N 51°41' E 002°13'2 4.3
2019-Sep-11 16:56N 51°42' E 002°16'57 9.0
2019-Sep-11 10:39N 52°39' E 002°28'212.3
2019-Sep-11 10:30N 52°40' E 002°27'612.4
2019-Sep-11 10:00N 52°46' E 002°22'2 4.1
2019-Sep-11 09:30N 52°45' E 002°19'2 3.3
2019-Sep-11 08:57N 52°46' E 002°17'1 1.1
2019-Sep-11 08:30N 52°47' E 002°17'4 8.4
2019-Sep-11 08:00N 52°50' E 002°20'  

Dump ship's entire track history